SWA3288 KAUS-KSJC
Flight info
| Callsign | SWA3288 |
|---|---|
| Flight time | N/A |
| Altitude | 40000 |
| Route | AEROZ2 SJT ABQ KA33Q VALEQ LAKRR JEDNA BTY RUSME RAZRR5 |
| Aircraft | B738/M-SDE2E3FGHIRWXY/LB1 |
Departure
| Time | N/A |
|---|---|
| Airport | Austin Bergstrom International Airport (KAUS) |
Arrival
| Time | 2026-05-08 06:39 |
|---|---|
| Airport | Norman Y. Mineta San Jose International Airport (KSJC) |
| Time | Latitude | Longitude | Altitude | Speed | Heading |
|---|---|---|---|---|---|
| 2026-05-08 06:13 | 37.34001 | -119.14987 | 38240 ft | 437 kts | 262° |
| 2026-05-08 06:13 | 37.33483 | -119.18766 | 37957 ft | 443 kts | 261° |
| 2026-05-08 06:13 | 37.32957 | -119.22597 | 37478 ft | 444 kts | 261° |
| 2026-05-08 06:13 | 37.32431 | -119.26414 | 36892 ft | 443 kts | 261° |
| 2026-05-08 06:14 | 37.31903 | -119.30230 | 36334 ft | 443 kts | 261° |
| 2026-05-08 06:14 | 37.31375 | -119.34036 | 35707 ft | 444 kts | 261° |
| 2026-05-08 06:14 | 37.30842 | -119.37867 | 35042 ft | 445 kts | 261° |
| 2026-05-08 06:14 | 37.30308 | -119.41702 | 34377 ft | 447 kts | 261° |
| 2026-05-08 06:15 | 37.29769 | -119.45555 | 33679 ft | 449 kts | 261° |
| 2026-05-08 06:15 | 37.29225 | -119.49430 | 32976 ft | 451 kts | 261° |
| 2026-05-08 06:15 | 37.28678 | -119.53324 | 32226 ft | 454 kts | 261° |
| 2026-05-08 06:15 | 37.28130 | -119.57217 | 31724 ft | 451 kts | 261° |
| 2026-05-08 06:16 | 37.27585 | -119.61079 | 31205 ft | 448 kts | 261° |
| 2026-05-08 06:16 | 37.27042 | -119.64912 | 30705 ft | 445 kts | 261° |
| 2026-05-08 06:16 | 37.26501 | -119.68718 | 30207 ft | 441 kts | 261° |
| 2026-05-08 06:16 | 37.25963 | -119.72495 | 29712 ft | 438 kts | 261° |
| 2026-05-08 06:17 | 37.24899 | -119.79955 | 28715 ft | 431 kts | 261° |
| 2026-05-08 06:17 | 37.24370 | -119.83644 | 28217 ft | 428 kts | 261° |
| 2026-05-08 06:17 | 37.23851 | -119.87258 | 27732 ft | 425 kts | 261° |
| 2026-05-08 06:18 | 37.23328 | -119.90891 | 27245 ft | 422 kts | 261° |
| 2026-05-08 06:18 | 37.22813 | -119.94465 | 27069 ft | 411 kts | 261° |
| 2026-05-08 06:18 | 37.22353 | -119.97992 | 26558 ft | 410 kts | 263° |
| 2026-05-08 06:18 | 37.21980 | -120.01523 | 26095 ft | 406 kts | 264° |
| 2026-05-08 06:19 | 37.21636 | -120.05034 | 25617 ft | 405 kts | 264° |
| 2026-05-08 06:19 | 37.21292 | -120.08534 | 25153 ft | 404 kts | 263° |
| 2026-05-08 06:19 | 37.20938 | -120.12034 | 24673 ft | 405 kts | 263° |
| 2026-05-08 06:19 | 37.20574 | -120.15536 | 24192 ft | 404 kts | 263° |
| 2026-05-08 06:20 | 37.20206 | -120.19015 | 23720 ft | 402 kts | 263° |
| 2026-05-08 06:20 | 37.19833 | -120.22481 | 23245 ft | 400 kts | 263° |
| 2026-05-08 06:20 | 37.19461 | -120.25923 | 22777 ft | 398 kts | 263° |
| 2026-05-08 06:20 | 37.19091 | -120.29346 | 22310 ft | 395 kts | 263° |
| 2026-05-08 06:21 | 37.18722 | -120.32754 | 21845 ft | 393 kts | 263° |
| 2026-05-08 06:21 | 37.18355 | -120.36135 | 21381 ft | 390 kts | 263° |
| 2026-05-08 06:21 | 37.17991 | -120.39491 | 20923 ft | 388 kts | 263° |
| 2026-05-08 06:21 | 37.17624 | -120.42833 | 20466 ft | 386 kts | 263° |
| 2026-05-08 06:22 | 37.17256 | -120.46156 | 20013 ft | 384 kts | 263° |
| 2026-05-08 06:22 | 37.16890 | -120.49458 | 19562 ft | 381 kts | 263° |
| 2026-05-08 06:22 | 37.16525 | -120.52728 | 19114 ft | 377 kts | 263° |
| 2026-05-08 06:22 | 37.16164 | -120.55972 | 18669 ft | 374 kts | 263° |
| 2026-05-08 06:23 | 37.15802 | -120.59193 | 18232 ft | 371 kts | 263° |
| 2026-05-08 06:23 | 37.15444 | -120.62379 | 17799 ft | 368 kts | 263° |
| 2026-05-08 06:23 | 37.15088 | -120.65542 | 17368 ft | 365 kts | 263° |
| 2026-05-08 06:23 | 37.14733 | -120.68691 | 16931 ft | 363 kts | 263° |
| 2026-05-08 06:24 | 37.14381 | -120.71811 | 16488 ft | 361 kts | 263° |
| 2026-05-08 06:24 | 37.14030 | -120.74913 | 16058 ft | 358 kts | 263° |
| 2026-05-08 06:24 | 37.13687 | -120.77987 | 15675 ft | 354 kts | 263° |
| 2026-05-08 06:24 | 37.13356 | -120.80990 | 15297 ft | 351 kts | 263° |
| 2026-05-08 06:25 | 37.13020 | -120.84045 | 14920 ft | 348 kts | 263° |
| 2026-05-08 06:25 | 37.12689 | -120.87043 | 14551 ft | 346 kts | 262° |
| 2026-05-08 06:25 | 37.12364 | -120.89973 | 14192 ft | 343 kts | 262° |
| 2026-05-08 06:25 | 37.12035 | -120.92929 | 13821 ft | 341 kts | 262° |
| 2026-05-08 06:26 | 37.11707 | -120.95861 | 13471 ft | 339 kts | 262° |
| 2026-05-08 06:26 | 37.11380 | -120.98776 | 13115 ft | 337 kts | 262° |
| 2026-05-08 06:26 | 37.11054 | -121.01674 | 12758 ft | 335 kts | 262° |
| 2026-05-08 06:26 | 37.10730 | -121.04563 | 12414 ft | 334 kts | 262° |
| 2026-05-08 06:27 | 37.10407 | -121.07431 | 12079 ft | 331 kts | 262° |
| 2026-05-08 06:27 | 37.10085 | -121.10277 | 11852 ft | 328 kts | 262° |
| 2026-05-08 06:27 | 37.09831 | -121.13140 | 11467 ft | 329 kts | 270° |
| 2026-05-08 06:27 | 37.10061 | -121.15975 | 11130 ft | 326 kts | 279° |
| 2026-05-08 06:28 | 37.10421 | -121.18772 | 10762 ft | 324 kts | 279° |
| 2026-05-08 06:28 | 37.10784 | -121.21540 | 10400 ft | 320 kts | 279° |
| 2026-05-08 06:28 | 37.11124 | -121.24249 | 10035 ft | 310 kts | 279° |
| 2026-05-08 06:28 | 37.11438 | -121.26849 | 9932 ft | 292 kts | 278° |
| 2026-05-08 06:29 | 37.11734 | -121.29363 | 9446 ft | 289 kts | 278° |
| 2026-05-08 06:29 | 37.12019 | -121.31832 | 9117 ft | 286 kts | 278° |
| 2026-05-08 06:29 | 37.12302 | -121.34303 | 8780 ft | 286 kts | 278° |
| 2026-05-08 06:29 | 37.12582 | -121.36764 | 8452 ft | 286 kts | 278° |
| 2026-05-08 06:30 | 37.12862 | -121.39227 | 8118 ft | 281 kts | 278° |
| 2026-05-08 06:30 | 37.13130 | -121.41604 | 7802 ft | 273 kts | 278° |
| 2026-05-08 06:30 | 37.13392 | -121.43937 | 7494 ft | 268 kts | 278° |
| 2026-05-08 06:30 | 37.13649 | -121.46233 | 7208 ft | 265 kts | 278° |
| 2026-05-08 06:31 | 37.13901 | -121.48506 | 6929 ft | 269 kts | 278° |
| 2026-05-08 06:31 | 37.14163 | -121.50877 | 6617 ft | 273 kts | 278° |
| 2026-05-08 06:31 | 37.14425 | -121.53226 | 6310 ft | 273 kts | 278° |
| 2026-05-08 06:31 | 37.14686 | -121.55552 | 6014 ft | 273 kts | 278° |
| 2026-05-08 06:32 | 37.14949 | -121.57904 | 5701 ft | 272 kts | 278° |
| 2026-05-08 06:32 | 37.15208 | -121.60251 | 5388 ft | 271 kts | 278° |
| 2026-05-08 06:32 | 37.15465 | -121.62587 | 5089 ft | 270 kts | 278° |
| 2026-05-08 06:32 | 37.15719 | -121.64895 | 4862 ft | 266 kts | 278° |
| 2026-05-08 06:33 | 37.15974 | -121.67210 | 4636 ft | 264 kts | 278° |
| 2026-05-08 06:33 | 37.16222 | -121.69474 | 4424 ft | 259 kts | 279° |
| 2026-05-08 06:33 | 37.16816 | -121.71531 | 4183 ft | 248 kts | 307° |
| 2026-05-08 06:33 | 37.17942 | -121.73057 | 4016 ft | 238 kts | 318° |
| 2026-05-08 06:34 | 37.19193 | -121.74418 | 3819 ft | 233 kts | 320° |
| 2026-05-08 06:34 | 37.20419 | -121.75726 | 3631 ft | 231 kts | 320° |
| 2026-05-08 06:34 | 37.21639 | -121.77022 | 3395 ft | 227 kts | 319° |
| 2026-05-08 06:34 | 37.22805 | -121.78276 | 3161 ft | 213 kts | 319° |
| 2026-05-08 06:35 | 37.23877 | -121.79437 | 2944 ft | 195 kts | 319° |
| 2026-05-08 06:35 | 37.24876 | -121.80520 | 2743 ft | 185 kts | 319° |
| 2026-05-08 06:35 | 37.25828 | -121.81559 | 2530 ft | 177 kts | 319° |
| 2026-05-08 06:35 | 37.26727 | -121.82540 | 2320 ft | 165 kts | 319° |
| 2026-05-08 06:36 | 37.27565 | -121.83454 | 2100 ft | 154 kts | 319° |
| 2026-05-08 06:36 | 37.28361 | -121.84324 | 1964 ft | 153 kts | 319° |
| 2026-05-08 06:36 | 37.29165 | -121.85201 | 1752 ft | 153 kts | 319° |
| 2026-05-08 06:36 | 37.29958 | -121.86066 | 1549 ft | 149 kts | 319° |
| 2026-05-08 06:37 | 37.30728 | -121.86910 | 1354 ft | 148 kts | 319° |
| 2026-05-08 06:37 | 37.31505 | -121.87761 | 1166 ft | 148 kts | 319° |
| 2026-05-08 06:37 | 37.32295 | -121.88626 | 966 ft | 148 kts | 319° |
| 2026-05-08 06:37 | 37.33060 | -121.89471 | 754 ft | 148 kts | 320° |
| 2026-05-08 06:38 | 37.33821 | -121.90315 | 545 ft | 144 kts | 320° |
| 2026-05-08 06:38 | 37.34576 | -121.91140 | 365 ft | 145 kts | 320° |
| 2026-05-08 06:38 | 37.35338 | -121.91972 | 174 ft | 146 kts | 320° |
| 2026-05-08 06:38 | 37.36090 | -121.92792 | 63 ft | 132 kts | 318° |
| 2026-05-08 06:39 | 37.36656 | -121.93414 | 62 ft | 67 kts | 319° |
| 2026-05-08 06:39 | 37.36872 | -121.93580 | 63 ft | 26 kts | 7° |
| 2026-05-08 06:39 | 37.36996 | -121.93456 | 62 ft | 19 kts | 50° |
| 2026-05-08 06:39 | 37.37064 | -121.93355 | 59 ft | 12 kts | 55° |
| 2026-05-08 06:40 | 37.37049 | -121.93266 | 58 ft | 11 kts | 134° |
| 2026-05-08 06:40 | 37.36990 | -121.93202 | 56 ft | 11 kts | 139° |
| 2026-05-08 06:40 | 37.36933 | -121.93139 | 58 ft | 11 kts | 139° |
| 2026-05-08 06:40 | 37.36870 | -121.93070 | 58 ft | 13 kts | 139° |
| 2026-05-08 06:41 | 37.36791 | -121.92983 | 60 ft | 17 kts | 139° |
| 2026-05-08 06:41 | 37.36700 | -121.92883 | 61 ft | 17 kts | 138° |
| 2026-05-08 06:41 | 37.36611 | -121.92786 | 59 ft | 17 kts | 139° |
| 2026-05-08 06:41 | 37.36525 | -121.92691 | 61 ft | 16 kts | 139° |
| 2026-05-08 06:42 | 37.36444 | -121.92602 | 61 ft | 15 kts | 139° |
| 2026-05-08 06:42 | 37.36364 | -121.92515 | 56 ft | 15 kts | 139° |
| 2026-05-08 06:42 | 37.36342 | -121.92438 | 58 ft | 9 kts | 59° |
| 2026-05-08 06:42 | 37.36368 | -121.92401 | 54 ft | 3 kts | 48° |
| 2026-05-08 06:43 | 37.36373 | -121.92393 | 60 ft | 0 kts | 48° |